Time;durP1;ratioP1;P1;durP2;ratioP2;P2;SDS_P1;SDS_P2;PMS_P1;PMS_P2;Temp;Humidity;BMP_temperature;BMP_pressure;BME280_temperature;BME280_humidity;BME280_pressure;Samples;Min_cycle;Max_cycle;Signal;HPM_P1;HPM_P2
2022/11/28 00:01:34;;;;;;;;;15.67;14.00;;;;;;;;5118059;27;45496;-62
2022/11/28 00:03:59;;;;;;;;;19.33;14.00;;;;;;;;5117268;27;45389;-62
2022/11/28 00:06:25;;;;;;;;;13.00;13.00;;;;;;;;5097057;27;45629;-62
2022/11/28 00:08:51;;;;;;;;;16.00;14.67;;;;;;;;5114598;27;45324;-62
2022/11/28 00:11:17;;;;;;;;;18.00;14.00;;;;;;;;5115261;27;45402;-62
2022/11/28 00:13:42;;;;;;;;;15.33;14.67;;;;;;;;5117511;27;45420;-62
2022/11/28 00:16:11;;;;;;;;;19.50;15.25;;;;;;;;5103300;27;45476;-63
2022/11/28 00:18:36;;;;;;;;;17.00;15.00;;;;;;;;5110465;27;45527;-62
2022/11/28 00:21:04;;;;;;;;;22.33;16.67;;;;;;;;5117308;27;45420;-62
2022/11/28 00:23:30;;;;;;;;;17.50;13.25;;;;;;;;5104451;27;45391;-62
2022/11/28 00:26:00;;;;;;;;;16.00;15.33;;;;;;;;5097436;27;47082;-62
2022/11/28 00:28:25;;;;;;;;;16.75;14.25;;;;;;;;5097647;27;45508;-62
2022/11/28 00:30:50;;;;;;;;;15.00;14.67;;;;;;;;5111302;27;45307;-62
2022/11/28 00:33:16;;;;;;;;;17.33;14.00;;;;;;;;5115300;27;45610;-62
2022/11/28 00:35:41;;;;;;;;;17.67;14.67;;;;;;;;5115965;27;45371;-62
2022/11/28 00:38:06;;;;;;;;;24.67;15.33;;;;;;;;5108103;27;45557;-62
2022/11/28 00:40:31;;;;;;;;;19.00;17.00;;;;;;;;5098147;27;46596;-62
2022/11/28 00:42:56;;;;;;;;;17.00;13.67;;;;;;;;5097023;27;45608;-62
2022/11/28 00:45:22;;;;;;;;;16.67;14.00;;;;;;;;5096702;27;45908;-62
2022/11/28 00:47:48;;;;;;;;;18.67;15.67;;;;;;;;5103840;27;45431;-62
2022/11/28 00:50:13;;;;;;;;;15.67;13.33;;;;;;;;5108332;27;45520;-62
2022/11/28 00:52:38;;;;;;;;;16.33;13.00;;;;;;;;5112938;27;45345;-63
2022/11/28 00:55:03;;;;;;;;;14.33;14.00;;;;;;;;5102340;27;46180;-63
2022/11/28 00:57:29;;;;;;;;;19.33;16.00;;;;;;;;5099726;27;45864;-62
2022/11/28 00:59:54;;;;;;;;;14.67;13.00;;;;;;;;5097831;27;45355;-62
2022/11/28 01:02:19;;;;;;;;;15.67;15.67;;;;;;;;5096592;27;45357;-62
2022/11/28 01:04:44;;;;;;;;;19.00;17.00;;;;;;;;5111484;27;46153;-62
2022/11/28 01:07:09;;;;;;;;;15.67;14.33;;;;;;;;5108711;27;45316;-62
2022/11/28 01:09:35;;;;;;;;;23.67;19.00;;;;;;;;5118881;27;45434;-62
2022/11/28 01:12:00;;;;;;;;;19.33;18.00;;;;;;;;5106943;27;45378;-62
2022/11/28 01:14:26;;;;;;;;;17.33;16.00;;;;;;;;5103682;27;48034;-62
2022/11/28 01:16:51;;;;;;;;;15.00;11.33;;;;;;;;5117344;27;45393;-63
2022/11/28 01:19:16;;;;;;;;;30.00;20.67;;;;;;;;5111912;27;45450;-63
2022/11/28 01:21:42;;;;;;;;;15.33;13.67;;;;;;;;5100878;27;45341;-63
2022/11/28 01:24:07;;;;;;;;;17.00;14.67;;;;;;;;5104859;27;46512;-62
2022/11/28 01:26:32;;;;;;;;;18.33;17.33;;;;;;;;5099833;27;45803;-63
2022/11/28 01:28:59;;;;;;;;;30.00;27.00;;;;;;;;5099951;27;45722;-63
2022/11/28 01:31:25;;;;;;;;;21.00;19.00;;;;;;;;5108166;27;45646;-63
2022/11/28 01:33:51;;;;;;;;;16.00;13.33;;;;;;;;5115161;27;46128;-63
2022/11/28 01:36:17;;;;;;;;;19.67;18.67;;;;;;;;5106069;27;45576;-62
2022/11/28 01:38:42;;;;;;;;;25.33;19.00;;;;;;;;5118019;27;45861;-62
2022/11/28 01:41:08;;;;;;;;;20.33;18.33;;;;;;;;5119927;27;45579;-62
2022/11/28 01:43:34;;;;;;;;;20.33;18.00;;;;;;;;5119565;27;46015;-63
2022/11/28 01:45:59;;;;;;;;;24.33;19.00;;;;;;;;5107749;27;45209;-62
2022/11/28 01:48:30;;;;;;;;;16.00;15.33;;;;;;;;5115549;27;45573;-63
2022/11/28 01:50:58;;;;;;;;;17.67;16.33;;;;;;;;5118832;27;45314;-62
2022/11/28 01:53:24;;;;;;;;;18.00;18.00;;;;;;;;5117399;27;46110;-63
2022/11/28 01:56:02;;;;;;;;;18.67;16.33;;;;;;;;5136831;27;45428;-63
2022/11/28 01:58:27;;;;;;;;;13.00;13.00;;;;;;;;5106445;27;45397;-63
2022/11/28 02:00:53;;;;;;;;;25.00;18.33;;;;;;;;5101837;27;46354;-63
2022/11/28 02:03:26;;;;;;;;;19.33;16.67;;;;;;;;5112689;27;45386;-63
2022/11/28 02:05:52;;;;;;;;;22.00;15.33;;;;;;;;5119953;27;45239;-63
2022/11/28 02:08:17;;;;;;;;;16.00;16.00;;;;;;;;5119700;27;45420;-62
2022/11/28 02:10:51;;;;;;;;;17.67;14.67;;;;;;;;5120036;27;45230;-62
2022/11/28 02:13:25;;;;;;;;;16.67;14.33;;;;;;;;5119597;27;45460;-63
2022/11/28 02:16:01;;;;;;;;;24.67;17.67;;;;;;;;5119054;27;45445;-62
2022/11/28 02:18:45;;;;;;;;;16.33;15.33;;;;;;;;5111794;27;45432;-63
2022/11/28 02:21:23;;;;;;;;;17.67;16.67;;;;;;;;5121491;27;45503;-62
2022/11/28 02:24:07;;;;;;;;;19.33;15.67;;;;;;;;5117831;27;45461;-62
2022/11/28 02:26:41;;;;;;;;;15.00;14.00;;;;;;;;5118701;27;45298;-62
2022/11/28 02:29:08;;;;;;;;;17.75;14.25;;;;;;;;5106150;27;45246;-63
2022/11/28 02:31:51;;;;;;;;;14.00;13.33;;;;;;;;5119262;27;45372;-62
2022/11/28 02:34:27;;;;;;;;;19.33;16.00;;;;;;;;5117948;27;46515;-62
2022/11/28 02:36:59;;;;;;;;;19.67;16.00;;;;;;;;5118333;27;45484;-62
2022/11/28 02:39:30;;;;;;;;;18.67;16.67;;;;;;;;5118248;27;45400;-62
2022/11/28 02:42:02;;;;;;;;;18.00;15.00;;;;;;;;5119092;27;45621;-63
2022/11/28 02:44:39;;;;;;;;;21.33;19.67;;;;;;;;5116981;27;45626;-63
2022/11/28 02:47:07;;;;;;;;;23.33;17.33;;;;;;;;5105832;27;45355;-62
2022/11/28 02:49:37;;;;;;;;;22.67;19.33;;;;;;;;5102637;27;45721;-62
2022/11/28 02:52:06;;;;;;;;;16.33;16.33;;;;;;;;5119085;27;45575;-62
2022/11/28 02:54:32;;;;;;;;;21.00;16.67;;;;;;;;5119410;27;45445;-62
2022/11/28 02:56:57;;;;;;;;;19.33;16.33;;;;;;;;5112686;27;45546;-62
2022/11/28 02:59:22;;;;;;;;;18.67;16.00;;;;;;;;5115166;27;45446;-62
2022/11/28 03:01:47;;;;;;;;;26.00;15.33;;;;;;;;5118604;27;45428;-62
2022/11/28 03:04:19;;;;;;;;;21.33;16.33;;;;;;;;5113532;27;45534;-62
2022/11/28 03:06:44;;;;;;;;;16.33;16.33;;;;;;;;5118136;27;45371;-62
2022/11/28 03:09:18;;;;;;;;;20.33;16.67;;;;;;;;5117419;27;45509;-62
2022/11/28 03:11:46;;;;;;;;;20.00;17.67;;;;;;;;5115604;27;45310;-62
2022/11/28 03:14:11;;;;;;;;;24.00;20.00;;;;;;;;5117671;27;46378;-62
2022/11/28 03:16:55;;;;;;;;;16.67;15.00;;;;;;;;5101094;27;45739;-62
2022/11/28 03:19:25;;;;;;;;;17.67;16.33;;;;;;;;5106908;27;45394;-62
2022/11/28 03:22:09;;;;;;;;;13.67;12.00;;;;;;;;5114236;27;45566;-62
2022/11/28 03:24:39;;;;;;;;;20.33;18.00;;;;;;;;5098216;27;46697;-62
2022/11/28 03:27:10;;;;;;;;;19.67;15.00;;;;;;;;5111463;27;46016;-62
2022/11/28 03:29:45;;;;;;;;;24.33;21.00;;;;;;;;5117360;27;45432;-62
2022/11/28 03:32:22;;;;;;;;;32.33;27.33;;;;;;;;5118296;27;45256;-62
2022/11/28 03:34:49;;;;;;;;;22.67;19.33;;;;;;;;5110405;27;46761;-62
2022/11/28 03:37:19;;;;;;;;;24.67;19.33;;;;;;;;5117680;27;45401;-62
2022/11/28 03:39:47;;;;;;;;;21.67;17.00;;;;;;;;5117518;27;45351;-62
2022/11/28 03:42:15;;;;;;;;;24.67;16.67;;;;;;;;5117897;27;45610;-62
2022/11/28 03:44:46;;;;;;;;;17.00;17.00;;;;;;;;5100874;27;46601;-62
2022/11/28 03:47:11;;;;;;;;;22.33;19.00;;;;;;;;5098073;27;45353;-62
2022/11/28 03:49:44;;;;;;;;;16.67;16.00;;;;;;;;5112723;27;45465;-62
2022/11/28 03:52:23;;;;;;;;;19.67;17.00;;;;;;;;5111919;27;45488;-62
2022/11/28 03:54:54;;;;;;;;;21.67;17.00;;;;;;;;5102208;27;47350;-63
2022/11/28 03:57:24;;;;;;;;;20.67;16.33;;;;;;;;5097992;27;45567;-63
2022/11/28 03:59:51;;;;;;;;;20.33;18.67;;;;;;;;5097566;27;45383;-63
2022/11/28 04:02:22;;;;;;;;;18.67;15.33;;;;;;;;5097749;27;45423;-63
2022/11/28 04:04:53;;;;;;;;;16.00;14.33;;;;;;;;5097322;27;46444;-63
2022/11/28 04:07:21;;;;;;;;;17.00;15.00;;;;;;;;5096751;27;45296;-62
2022/11/28 04:09:48;;;;;;;;;16.67;14.67;;;;;;;;5097664;27;45417;-62
2022/11/28 04:12:34;;;;;;;;;15.33;15.33;;;;;;;;5103959;27;45468;-62
2022/11/28 04:15:05;;;;;;;;;14.00;14.00;;;;;;;;5113534;27;46643;-62
2022/11/28 04:17:30;;;;;;;;;14.67;14.00;;;;;;;;5117831;27;45449;-62
2022/11/28 04:20:05;;;;;;;;;19.00;14.67;;;;;;;;5118110;27;45472;-62
2022/11/28 04:22:34;;;;;;;;;17.67;16.67;;;;;;;;5116885;27;45440;-62
2022/11/28 04:25:01;;;;;;;;;15.67;12.33;;;;;;;;5117679;27;45401;-62
2022/11/28 04:27:29;;;;;;;;;13.25;10.25;;;;;;;;5106794;27;45379;-62
2022/11/28 04:29:57;;;;;;;;;15.67;12.33;;;;;;;;5097307;27;45401;-62
2022/11/28 04:32:24;;;;;;;;;17.67;12.67;;;;;;;;5097201;27;45417;-62
2022/11/28 04:34:53;;;;;;;;;17.00;13.00;;;;;;;;5097273;27;46573;-62
2022/11/28 04:37:20;;;;;;;;;14.67;12.33;;;;;;;;5115637;27;45420;-62
2022/11/28 04:39:47;;;;;;;;;12.25;12.00;;;;;;;;5109612;27;45544;-63
2022/11/28 04:42:15;;;;;;;;;15.33;12.67;;;;;;;;5121395;27;45167;-63
2022/11/28 04:44:40;;;;;;;;;14.00;13.00;;;;;;;;5120985;27;46958;-62
2022/11/28 04:47:06;;;;;;;;;15.67;14.33;;;;;;;;5110613;27;45290;-62
2022/11/28 04:49:31;;;;;;;;;15.00;12.33;;;;;;;;5100574;27;45433;-63
2022/11/28 04:52:05;;;;;;;;;17.00;13.00;;;;;;;;5100420;27;45453;-63
2022/11/28 04:54:35;;;;;;;;;38.33;33.00;;;;;;;;5099910;27;46307;-62
2022/11/28 04:57:16;;;;;;;;;16.75;13.00;;;;;;;;5100152;27;45387;-62
2022/11/28 04:59:42;;;;;;;;;13.33;11.00;;;;;;;;5100473;27;45508;-63
2022/11/28 05:02:08;;;;;;;;;8.33;8.00;;;;;;;;5112720;27;45457;-63
2022/11/28 05:04:35;;;;;;;;;13.75;10.25;;;;;;;;5120706;27;46832;-63
2022/11/28 05:07:04;;;;;;;;;12.25;11.50;;;;;;;;5120767;27;45366;-63
2022/11/28 05:09:29;;;;;;;;;15.33;12.00;;;;;;;;5118998;27;45205;-63
2022/11/28 05:11:55;;;;;;;;;13.50;10.25;;;;;;;;5105272;27;45513;-63
2022/11/28 05:14:21;;;;;;;;;11.67;9.67;;;;;;;;5120618;27;45441;-62
2022/11/28 05:16:46;;;;;;;;;9.25;9.25;;;;;;;;5120606;27;45303;-62
2022/11/28 05:19:11;;;;;;;;;10.50;8.50;;;;;;;;5118115;27;45792;-62
2022/11/28 05:21:36;;;;;;;;;11.33;10.67;;;;;;;;5109857;27;45664;-63
2022/11/28 05:24:02;;;;;;;;;8.00;7.00;;;;;;;;5099867;27;45640;-63
2022/11/28 05:26:31;;;;;;;;;11.00;11.00;;;;;;;;5099734;27;45407;-63
2022/11/28 05:28:56;;;;;;;;;13.75;8.50;;;;;;;;5099529;27;45537;-63
2022/11/28 05:31:21;;;;;;;;;13.00;10.00;;;;;;;;5116230;27;45314;-63
2022/11/28 05:33:46;;;;;;;;;13.25;7.75;;;;;;;;5120220;27;46352;-63
2022/11/28 05:36:12;;;;;;;;;10.25;8.25;;;;;;;;5116533;27;45462;-63
2022/11/28 05:38:38;;;;;;;;;11.25;10.50;;;;;;;;5099670;27;45254;-62
2022/11/28 05:41:03;;;;;;;;;12.00;9.67;;;;;;;;5099926;27;45190;-62
2022/11/28 05:43:29;;;;;;;;;11.50;9.00;;;;;;;;5099441;27;47565;-62
2022/11/28 05:45:54;;;;;;;;;11.25;8.00;;;;;;;;5098923;27;45469;-62
2022/11/28 05:48:20;;;;;;;;;8.75;6.50;;;;;;;;5099610;27;45361;-62
2022/11/28 05:50:45;;;;;;;;;14.00;12.00;;;;;;;;5098892;27;45307;-62
2022/11/28 05:53:10;;;;;;;;;12.50;8.00;;;;;;;;5099339;27;45509;-62
2022/11/28 05:55:36;;;;;;;;;9.75;9.75;;;;;;;;5099601;27;45484;-62
2022/11/28 05:58:01;;;;;;;;;9.25;7.00;;;;;;;;5120090;27;45514;-62
2022/11/28 06:00:27;;;;;;;;;11.50;8.25;;;;;;;;5120177;27;45549;-62
2022/11/28 06:02:52;;;;;;;;;10.25;10.00;;;;;;;;5119861;27;46570;-63
2022/11/28 06:05:17;;;;;;;;;10.25;8.75;;;;;;;;5100797;27;45428;-63
2022/11/28 06:07:42;;;;;;;;;14.00;9.25;;;;;;;;5099250;27;45444;-63
2022/11/28 06:10:08;;;;;;;;;15.33;14.33;;;;;;;;5109015;27;45344;-63
2022/11/28 06:12:33;;;;;;;;;12.33;10.67;;;;;;;;5119380;27;45402;-63
2022/11/28 06:14:58;;;;;;;;;7.25;7.00;;;;;;;;5119621;27;45440;-63
2022/11/28 06:17:23;;;;;;;;;8.75;8.25;;;;;;;;5118842;27;45511;-63
2022/11/28 06:19:49;;;;;;;;;11.00;11.00;;;;;;;;5112459;27;45482;-63
2022/11/28 06:22:14;;;;;;;;;9.00;8.00;;;;;;;;5099544;27;46550;-63
2022/11/28 06:24:39;;;;;;;;;10.50;9.00;;;;;;;;5104058;27;45432;-62
2022/11/28 06:27:04;;;;;;;;;12.00;9.33;;;;;;;;5116847;27;45452;-62
2022/11/28 06:29:29;;;;;;;;;8.75;7.00;;;;;;;;5099105;27;45816;-63
2022/11/28 06:31:55;;;;;;;;;9.50;9.50;;;;;;;;5102503;27;46202;-63
2022/11/28 06:34:20;;;;;;;;;14.25;11.00;;;;;;;;5098465;27;45463;-63
2022/11/28 06:36:46;;;;;;;;;7.50;7.00;;;;;;;;5100600;27;45429;-63
2022/11/28 06:39:14;;;;;;;;;16.00;12.75;;;;;;;;5098906;27;45417;-62
2022/11/28 06:41:40;;;;;;;;;12.00;10.75;;;;;;;;5098621;27;48463;-63
2022/11/28 06:44:05;;;;;;;;;8.75;8.75;;;;;;;;5098311;27;45422;-63
2022/11/28 06:46:30;;;;;;;;;13.00;12.25;;;;;;;;5112063;27;45413;-62
2022/11/28 06:48:55;;;;;;;;;31.67;31.67;;;;;;;;5119358;27;45412;-62
2022/11/28 06:51:21;;;;;;;;;12.67;9.67;;;;;;;;5113597;27;47090;-62
2022/11/28 06:53:47;;;;;;;;;11.50;11.50;;;;;;;;5118805;27;45691;-62
2022/11/28 06:56:14;;;;;;;;;12.25;10.75;;;;;;;;5119121;27;45275;-62
2022/11/28 06:58:39;;;;;;;;;8.50;8.50;;;;;;;;5101948;27;45613;-62
2022/11/28 07:01:09;;;;;;;;;15.67;11.33;;;;;;;;5106441;27;46412;-62
2022/11/28 07:03:34;;;;;;;;;16.67;14.00;;;;;;;;5118376;27;45327;-61
2022/11/28 07:06:01;;;;;;;;;19.00;15.00;;;;;;;;5119071;27;45433;-61
2022/11/28 07:08:26;;;;;;;;;21.33;15.33;;;;;;;;5111791;27;45530;-61
2022/11/28 07:10:51;;;;;;;;;11.67;11.33;;;;;;;;5114463;27;46478;-61
2022/11/28 07:13:16;;;;;;;;;16.00;15.33;;;;;;;;5118261;27;45477;-61
2022/11/28 07:15:48;;;;;;;;;22.00;18.00;;;;;;;;5117811;27;45821;-61
2022/11/28 07:18:13;;;;;;;;;19.33;18.33;;;;;;;;5118303;27;45446;-61
2022/11/28 07:20:39;;;;;;;;;20.67;18.33;;;;;;;;5113068;27;46101;-61
2022/11/28 07:23:04;;;;;;;;;18.00;17.00;;;;;;;;5103696;27;45443;-61
2022/11/28 07:25:29;;;;;;;;;26.33;23.67;;;;;;;;5117253;27;45367;-61
2022/11/28 07:27:54;;;;;;;;;32.33;29.00;;;;;;;;5108987;27;45423;-62
2022/11/28 07:30:20;;;;;;;;;25.33;22.00;;;;;;;;5097628;27;46369;-61
2022/11/28 07:32:45;;;;;;;;;22.33;20.67;;;;;;;;5112196;27;45465;-61
2022/11/28 07:35:11;;;;;;;;;34.33;31.33;;;;;;;;5118391;27;45305;-61
2022/11/28 07:37:36;;;;;;;;;18.67;15.33;;;;;;;;5118409;27;45631;-61
2022/11/28 07:40:02;;;;;;;;;18.67;17.33;;;;;;;;5117710;27;45326;-61
2022/11/28 07:42:27;;;;;;;;;18.33;17.67;;;;;;;;5103579;27;45506;-62
2022/11/28 07:44:53;;;;;;;;;20.33;16.67;;;;;;;;5096918;27;45327;-62
2022/11/28 07:47:18;;;;;;;;;18.00;14.00;;;;;;;;5118553;27;45404;-62
2022/11/28 07:49:44;;;;;;;;;23.33;17.33;;;;;;;;5118055;27;46155;-62
2022/11/28 07:52:09;;;;;;;;;23.00;16.67;;;;;;;;5117757;27;45443;-62
2022/11/28 07:54:34;;;;;;;;;15.00;15.00;;;;;;;;5118381;27;45416;-62
2022/11/28 07:56:59;;;;;;;;;20.33;16.67;;;;;;;;5117727;27;45806;-62
2022/11/28 07:59:24;;;;;;;;;17.67;15.33;;;;;;;;5119762;27;45560;-62
2022/11/28 08:01:52;;;;;;;;;24.00;19.00;;;;;;;;5110058;27;45599;-62
2022/11/28 08:04:17;;;;;;;;;21.67;16.00;;;;;;;;5108288;27;45390;-62
2022/11/28 08:06:43;;;;;;;;;26.33;20.00;;;;;;;;5119630;27;45878;-62
2022/11/28 08:09:08;;;;;;;;;23.67;21.67;;;;;;;;5126394;27;45424;-62
2022/11/28 08:11:34;;;;;;;;;17.00;16.00;;;;;;;;5137149;27;45396;-62
2022/11/28 08:13:59;;;;;;;;;16.00;14.33;;;;;;;;5124636;27;45320;-61
2022/11/28 08:16:25;;;;;;;;;23.00;19.00;;;;;;;;5120494;27;45149;-62
2022/11/28 08:18:51;;;;;;;;;19.67;17.00;;;;;;;;5105082;27;46368;-62
2022/11/28 08:21:22;;;;;;;;;19.33;16.33;;;;;;;;5100660;27;45263;-62
2022/11/28 08:23:47;;;;;;;;;24.33;20.00;;;;;;;;5100763;27;45782;-62
2022/11/28 08:26:14;;;;;;;;;19.33;18.67;;;;;;;;5100935;27;45296;-62
2022/11/28 08:28:40;;;;;;;;;18.33;18.00;;;;;;;;5100516;27;46379;-62
2022/11/28 08:31:13;;;;;;;;;24.33;20.00;;;;;;;;5100072;27;45928;-62
2022/11/28 08:33:38;;;;;;;;;23.33;18.33;;;;;;;;5119702;27;45325;-62
2022/11/28 08:36:07;;;;;;;;;24.00;19.00;;;;;;;;5110088;27;45461;-61
2022/11/28 08:38:33;;;;;;;;;27.00;22.00;;;;;;;;5117828;27;46865;-61
2022/11/28 08:41:09;;;;;;;;;26.33;22.00;;;;;;;;5120527;27;45340;-62
2022/11/28 08:43:35;;;;;;;;;25.67;22.00;;;;;;;;5121184;27;45317;-62
2022/11/28 08:46:01;;;;;;;;;23.67;21.67;;;;;;;;5112277;27;45379;-62
2022/11/28 08:48:27;;;;;;;;;46.00;38.00;;;;;;;;5101135;27;46222;-61
2022/11/28 08:50:53;;;;;;;;;25.67;21.67;;;;;;;;5100467;27;45409;-61
2022/11/28 08:53:18;;;;;;;;;36.00;26.67;;;;;;;;5113327;27;45457;-61
2022/11/28 08:55:44;;;;;;;;;29.67;25.33;;;;;;;;5120929;27;45241;-61
2022/11/28 08:58:09;;;;;;;;;30.33;25.33;;;;;;;;5120673;27;47147;-62
2022/11/28 09:00:35;;;;;;;;;16.67;15.00;;;;;;;;5120447;27;45869;-61
2022/11/28 09:03:00;;;;;;;;;31.33;25.00;;;;;;;;5109926;27;45428;-61
2022/11/28 09:05:27;;;;;;;;;31.00;24.00;;;;;;;;5101384;27;45365;-61
2022/11/28 09:07:53;;;;;;;;;26.67;22.67;;;;;;;;5100288;27;46728;-61
2022/11/28 09:10:18;;;;;;;;;31.33;26.00;;;;;;;;5106533;27;45545;-61
2022/11/28 09:12:44;;;;;;;;;30.33;25.00;;;;;;;;5099946;27;45416;-61
2022/11/28 09:15:09;;;;;;;;;36.33;29.00;;;;;;;;5099956;27;45777;-61
2022/11/28 09:17:34;;;;;;;;;36.00;29.33;;;;;;;;5100724;27;46282;-61
2022/11/28 09:20:00;;;;;;;;;35.33;30.67;;;;;;;;5107883;27;47013;-61
2022/11/28 09:22:27;;;;;;;;;25.00;22.33;;;;;;;;5101464;27;45457;-61
2022/11/28 09:24:52;;;;;;;;;32.00;26.67;;;;;;;;5100059;27;45409;-61
2022/11/28 09:27:17;;;;;;;;;28.67;27.00;;;;;;;;5099426;27;46484;-61
2022/11/28 09:29:43;;;;;;;;;31.00;27.67;;;;;;;;5099579;27;45378;-61
2022/11/28 09:32:08;;;;;;;;;32.33;27.67;;;;;;;;5099458;27;45352;-61
2022/11/28 09:34:34;;;;;;;;;31.33;28.00;;;;;;;;5100079;27;45456;-61
2022/11/28 09:36:59;;;;;;;;;24.67;21.67;;;;;;;;5108033;27;46397;-61
2022/11/28 09:39:24;;;;;;;;;36.33;29.00;;;;;;;;5102200;27;45507;-61
2022/11/28 09:42:13;;;;;;;;;26.00;22.33;;;;;;;;5103447;27;45386;-61
2022/11/28 09:44:43;;;;;;;;;28.00;23.67;;;;;;;;5036681;28;45507;-61
2022/11/28 09:47:20;;;;;;;;;31.33;26.67;;;;;;;;5035829;28;46161;-61
2022/11/28 09:49:58;;;;;;;;;30.33;26.33;;;;;;;;5035552;28;45216;-61
2022/11/28 09:52:27;;;;;;;;;31.00;27.33;;;;;;;;5030654;28;45476;-61
2022/11/28 09:54:59;;;;;;;;;31.00;23.33;;;;;;;;5034326;28;46094;-61
2022/11/28 09:57:36;;;;;;;;;34.33;25.33;;;;;;;;5035316;28;45392;-61
2022/11/28 10:00:01;;;;;;;;;36.33;26.33;;;;;;;;5035791;28;45421;-61
2022/11/28 10:02:29;;;;;;;;;29.00;24.33;;;;;;;;5032361;28;45456;-61
2022/11/28 10:05:04;;;;;;;;;34.00;25.67;;;;;;;;5036228;28;45455;-61
2022/11/28 10:07:36;;;;;;;;;30.00;26.00;;;;;;;;5034379;28;45951;-61
2022/11/28 10:10:19;;;;;;;;;32.33;23.67;;;;;;;;5035858;28;45297;-61
2022/11/28 10:12:47;;;;;;;;;29.00;22.67;;;;;;;;5036046;28;45426;-61
2022/11/28 10:15:24;;;;;;;;;23.67;22.00;;;;;;;;5035975;28;45434;-61
2022/11/28 10:18:02;;;;;;;;;24.67;24.33;;;;;;;;5035405;28;45563;-61
2022/11/28 10:20:30;;;;;;;;;34.00;23.33;;;;;;;;5035907;27;45375;-61
2022/11/28 10:23:04;;;;;;;;;27.67;21.67;;;;;;;;5098632;27;45372;-62
2022/11/28 10:25:33;;;;;;;;;22.00;20.67;;;;;;;;5098893;27;45391;-61
2022/11/28 10:27:58;;;;;;;;;27.33;22.00;;;;;;;;5098422;27;45492;-61
2022/11/28 10:30:25;;;;;;;;;45.00;35.67;;;;;;;;5103992;27;45231;-61
2022/11/28 10:33:10;;;;;;;;;23.33;21.00;;;;;;;;5122903;27;45938;-61
2022/11/28 10:35:43;;;;;;;;;23.67;20.00;;;;;;;;5139616;27;45314;-61
2022/11/28 10:38:10;;;;;;;;;21.67;20.00;;;;;;;;5140059;27;45778;-62
2022/11/28 10:40:45;;;;;;;;;23.33;19.33;;;;;;;;5140105;27;45407;-59
2022/11/28 10:43:10;;;;;;;;;23.33;21.67;;;;;;;;5140091;27;45380;-61
2022/11/28 10:45:47;;;;;;;;;23.00;17.33;;;;;;;;5134771;27;45503;-61
2022/11/28 10:48:36;;;;;;;;;32.00;25.67;;;;;;;;5119097;27;45716;-61
2022/11/28 10:51:20;;;;;;;;;23.00;18.00;;;;;;;;5117757;27;45349;-61
2022/11/28 10:54:00;;;;;;;;;22.67;18.33;;;;;;;;5118516;27;45335;-61
2022/11/28 10:56:29;;;;;;;;;26.00;20.67;;;;;;;;5119155;27;45387;-61
2022/11/28 10:59:00;;;;;;;;;28.67;22.00;;;;;;;;5118798;27;45890;-61
2022/11/28 11:01:28;;;;;;;;;25.33;24.00;;;;;;;;5118907;27;45256;-61
2022/11/28 11:03:53;;;;;;;;;28.00;19.33;;;;;;;;5097661;27;45460;-61
2022/11/28 11:06:18;;;;;;;;;24.00;19.67;;;;;;;;5103657;27;45412;-61
2022/11/28 11:08:44;;;;;;;;;20.67;14.33;;;;;;;;5118797;27;46371;-61
2022/11/28 11:11:18;;;;;;;;;20.25;17.50;;;;;;;;5116976;27;45456;-61
2022/11/28 11:14:00;;;;;;;;;29.00;21.67;;;;;;;;5114783;27;45430;-61
2022/11/28 11:16:45;;;;;;;;;17.00;17.00;;;;;;;;5117658;27;45289;-61
2022/11/28 11:19:21;;;;;;;;;18.00;14.25;;;;;;;;5114643;27;46689;-60
2022/11/28 11:21:57;;;;;;;;;17.33;15.00;;;;;;;;5105204;27;46089;-60
2022/11/28 11:24:22;;;;;;;;;20.33;18.67;;;;;;;;5117082;27;45491;-61
2022/11/28 11:26:47;;;;;;;;;22.33;22.00;;;;;;;;5118784;27;45354;-60
2022/11/28 11:29:28;;;;;;;;;26.00;19.00;;;;;;;;5118500;27;46576;-61
2022/11/28 11:31:54;;;;;;;;;19.00;14.67;;;;;;;;5117304;27;45421;-60
2022/11/28 11:34:21;;;;;;;;;19.33;15.00;;;;;;;;5118582;27;45365;-61
2022/11/28 11:36:47;;;;;;;;;16.67;15.00;;;;;;;;5118815;27;45777;-60
2022/11/28 11:39:12;;;;;;;;;24.00;20.67;;;;;;;;5113196;27;45376;-60
2022/11/28 11:41:37;;;;;;;;;16.33;13.00;;;;;;;;5102022;27;45432;-61
2022/11/28 11:44:14;;;;;;;;;18.00;13.00;;;;;;;;5098263;27;45373;-60
2022/11/28 11:46:50;;;;;;;;;14.67;10.33;;;;;;;;5111388;27;45461;-61
2022/11/28 11:49:28;;;;;;;;;22.67;14.00;;;;;;;;5115636;27;46148;-62
2022/11/28 11:51:58;;;;;;;;;21.00;15.00;;;;;;;;5116799;27;46598;-61
2022/11/28 11:54:23;;;;;;;;;17.75;12.25;;;;;;;;5116760;27;45969;-62
2022/11/28 11:56:49;;;;;;;;;17.25;11.25;;;;;;;;5117859;27;45506;-61
2022/11/28 11:59:23;;;;;;;;;17.25;14.25;;;;;;;;5120176;27;46528;-61
2022/11/28 12:01:53;;;;;;;;;12.00;10.00;;;;;;;;5117422;27;45526;-60
2022/11/28 12:04:23;;;;;;;;;17.50;11.75;;;;;;;;5118214;27;45825;-60
2022/11/28 12:06:51;;;;;;;;;19.50;11.00;;;;;;;;5107826;27;45527;-61
2022/11/28 12:09:35;;;;;;;;;8.25;6.00;;;;;;;;5097352;27;45694;-61
2022/11/28 12:12:23;;;;;;;;;13.75;13.00;;;;;;;;5097122;27;45367;-61
2022/11/28 12:14:49;;;;;;;;;12.50;11.00;;;;;;;;5034336;28;45390;-61
2022/11/28 12:17:14;;;;;;;;;14.50;12.00;;;;;;;;5034489;28;45424;-61
2022/11/28 12:19:42;;;;;;;;;11.50;9.00;;;;;;;;5034126;28;45848;-61
2022/11/28 12:22:14;;;;;;;;;10.00;8.25;;;;;;;;5034183;28;45502;-61
2022/11/28 12:24:40;;;;;;;;;7.25;6.75;;;;;;;;5034542;28;45509;-61
2022/11/28 12:27:11;;;;;;;;;12.75;8.50;;;;;;;;5034356;28;45417;-61
2022/11/28 12:29:45;;;;;;;;;9.75;8.00;;;;;;;;5034073;28;45464;-61
2022/11/28 12:32:29;;;;;;;;;11.25;10.50;;;;;;;;5033775;28;45536;-61
2022/11/28 12:35:00;;;;;;;;;13.25;10.50;;;;;;;;5034269;28;45973;-61
2022/11/28 12:37:44;;;;;;;;;8.25;8.25;;;;;;;;5034472;28;45355;-61
2022/11/28 12:40:26;;;;;;;;;10.50;8.00;;;;;;;;5034029;28;45540;-61
2022/11/28 12:43:10;;;;;;;;;9.25;5.50;;;;;;;;5034052;28;45438;-61
2022/11/28 12:45:50;;;;;;;;;8.50;8.00;;;;;;;;5034086;28;45349;-61
2022/11/28 12:48:18;;;;;;;;;7.75;6.00;;;;;;;;5034075;28;45221;-61
2022/11/28 12:50:51;;;;;;;;;11.25;6.25;;;;;;;;5036198;27;46532;-61
2022/11/28 12:53:35;;;;;;;;;13.75;10.25;;;;;;;;5096925;27;45583;-61
2022/11/28 12:56:06;;;;;;;;;11.50;8.25;;;;;;;;5096827;27;45308;-61
2022/11/28 12:58:31;;;;;;;;;12.00;10.25;;;;;;;;5097058;27;45433;-61
2022/11/28 13:01:15;;;;;;;;;11.50;7.00;;;;;;;;5100328;27;45500;-61
2022/11/28 13:03:54;;;;;;;;;10.25;7.00;;;;;;;;5100293;27;45304;-61
2022/11/28 13:06:23;;;;;;;;;9.75;9.50;;;;;;;;5100548;27;45338;-61
2022/11/28 13:08:54;;;;;;;;;14.00;9.25;;;;;;;;5100646;27;45455;-61
2022/11/28 13:11:41;;;;;;;;;10.25;8.75;;;;;;;;5100078;27;45597;-61
2022/11/28 13:14:21;;;;;;;;;18.00;9.75;;;;;;;;5100229;27;45383;-61
2022/11/28 13:16:49;;;;;;;;;17.33;14.67;;;;;;;;5100329;27;45449;-61
2022/11/28 13:19:14;;;;;;;;;21.33;15.00;;;;;;;;5100002;27;45251;-61
2022/11/28 13:21:46;;;;;;;;;19.25;14.25;;;;;;;;5099754;27;45273;-61
2022/11/28 13:24:29;;;;;;;;;18.00;15.00;;;;;;;;5100037;27;45425;-61
2022/11/28 13:27:07;;;;;;;;;14.50;13.00;;;;;;;;5099998;27;45367;-61
2022/11/28 13:29:40;;;;;;;;;24.00;18.00;;;;;;;;5100094;27;45364;-61
2022/11/28 13:32:17;;;;;;;;;22.75;17.50;;;;;;;;5099619;27;46429;-61
2022/11/28 13:34:43;;;;;;;;;19.00;17.00;;;;;;;;5099534;27;45472;-61
2022/11/28 13:37:14;;;;;;;;;18.33;16.00;;;;;;;;5099962;27;45454;-61
2022/11/28 13:39:52;;;;;;;;;16.75;14.00;;;;;;;;5099952;27;45416;-61
2022/11/28 13:42:17;;;;;;;;;19.67;15.67;;;;;;;;5099550;27;47279;-61
2022/11/28 13:44:56;;;;;;;;;19.00;15.33;;;;;;;;5099943;27;45301;-61
2022/11/28 13:47:22;;;;;;;;;21.00;15.67;;;;;;;;5099718;27;45518;-61
2022/11/28 13:49:47;;;;;;;;;20.33;15.33;;;;;;;;5099739;27;45348;-61
2022/11/28 13:52:19;;;;;;;;;17.00;13.33;;;;;;;;5099489;27;45360;-61
2022/11/28 13:54:51;;;;;;;;;17.67;13.00;;;;;;;;5099372;27;45444;-61
2022/11/28 13:57:25;;;;;;;;;18.00;14.00;;;;;;;;5099464;27;45288;-61
2022/11/28 13:59:53;;;;;;;;;27.75;13.00;;;;;;;;5099710;27;45347;-61
2022/11/28 14:02:33;;;;;;;;;22.75;14.75;;;;;;;;5099072;27;46513;-61
2022/11/28 14:04:59;;;;;;;;;16.67;14.00;;;;;;;;5099098;27;45453;-61
2022/11/28 14:07:29;;;;;;;;;13.75;12.25;;;;;;;;5099373;27;45354;-61
2022/11/28 14:10:18;;;;;;;;;15.75;11.75;;;;;;;;5099451;27;45489;-61
2022/11/28 14:12:43;;;;;;;;;14.00;13.00;;;;;;;;5098779;27;46490;-61
2022/11/28 14:15:14;;;;;;;;;24.67;16.33;;;;;;;;5098999;27;45383;-61
2022/11/28 14:18:02;;;;;;;;;14.75;11.25;;;;;;;;5098971;27;45394;-61
2022/11/28 14:20:45;;;;;;;;;18.33;16.00;;;;;;;;5099014;27;45223;-61
2022/11/28 14:23:46;;;;;;;;;18.33;14.67;;;;;;;;5098838;27;45374;-61
2022/11/28 14:26:20;;;;;;;;;22.00;19.00;;;;;;;;5035920;28;45393;-61
2022/11/28 14:28:45;;;;;;;;;21.25;15.00;;;;;;;;5035965;28;45367;-61
2022/11/28 14:31:17;;;;;;;;;19.50;15.00;;;;;;;;5036041;28;45361;-61